createdAt,value
2017-04-05T00:00:00.583Z,0
2017-04-05T00:00:59.184Z,0
2017-04-05T00:01:59.086Z,0
2017-04-05T00:02:59.205Z,0
2017-04-05T00:03:58.887Z,0
2017-04-05T00:04:59.260Z,0
2017-04-05T00:05:58.327Z,0
2017-04-05T00:06:59.217Z,0
2017-04-05T00:07:58.696Z,0
2017-04-05T00:08:58.660Z,0
2017-04-05T00:09:59.236Z,0
2017-04-05T00:11:00.716Z,0
2017-04-05T00:11:58.666Z,0
2017-04-05T00:12:59.591Z,0
2017-04-05T00:13:58.997Z,0
2017-04-05T00:14:59.038Z,0
2017-04-05T00:15:59.272Z,0
2017-04-05T00:16:59.077Z,0
2017-04-05T00:17:58.961Z,0
2017-04-05T00:18:59.323Z,0
2017-04-05T00:19:59.286Z,0
2017-04-05T00:20:59.385Z,0
2017-04-05T00:22:00.656Z,0
2017-04-05T00:22:59.288Z,0
2017-04-05T00:23:59.491Z,0
2017-04-05T00:24:58.676Z,0
2017-04-05T00:25:58.780Z,0
2017-04-05T00:26:59.326Z,0
2017-04-05T00:27:59.422Z,0
2017-04-05T00:28:59.354Z,0
2017-04-05T00:29:59.343Z,0
2017-04-05T00:30:59.333Z,0
2017-04-05T00:31:59.091Z,0
2017-04-05T00:33:00.400Z,0
2017-04-05T00:33:59.454Z,0
2017-04-05T00:34:59.509Z,0
2017-04-05T00:35:59.480Z,0
2017-04-05T00:37:00.730Z,0
2017-04-05T00:37:59.466Z,0
2017-04-05T00:38:59.435Z,0
2017-04-05T00:39:59.380Z,0
2017-04-05T00:40:59.458Z,0
2017-04-05T00:41:59.496Z,0
2017-04-05T00:42:59.560Z,0
2017-04-05T00:44:00.264Z,0
2017-04-05T00:44:59.192Z,0
2017-04-05T00:45:59.462Z,0
2017-04-05T00:46:58.885Z,0
2017-04-05T00:48:00.576Z,0
2017-04-05T00:48:59.536Z,0
2017-04-05T00:49:59.655Z,0
2017-04-05T00:50:59.132Z,0
2017-04-05T00:51:59.494Z,0
2017-04-05T00:52:59.187Z,0
2017-04-05T00:53:59.455Z,0
2017-04-05T00:54:59.511Z,0
2017-04-05T00:55:59.197Z,0
2017-04-05T00:56:59.379Z,0
2017-04-05T00:57:59.621Z,0
2017-04-05T00:59:00.521Z,0
2017-04-05T00:59:59.601Z,0
2017-04-05T01:00:59.230Z,0
2017-04-05T01:01:59.546Z,0
2017-04-05T01:02:59.544Z,0
2017-04-05T01:03:59.671Z,0
2017-04-05T01:04:59.801Z,0
2017-04-05T01:05:59.002Z,0
2017-04-05T01:06:59.591Z,0
2017-04-05T01:07:59.587Z,0
2017-04-05T01:08:59.307Z,0
2017-04-05T01:10:00.651Z,0
2017-04-05T01:10:59.230Z,0
2017-04-05T01:11:59.552Z,0
2017-04-05T01:12:59.684Z,0
2017-04-05T01:13:59.402Z,0
2017-04-05T01:15:00.103Z,0
2017-04-05T01:15:59.307Z,0
2017-04-05T01:16:59.412Z,0
2017-04-05T01:17:59.643Z,0
2017-04-05T01:18:59.483Z,0
2017-04-05T01:19:59.641Z,0
2017-04-05T01:21:00.842Z,0
2017-04-05T01:21:59.337Z,0
2017-04-05T01:22:59.702Z,0
2017-04-05T01:24:00.233Z,0
2017-04-05T01:24:59.708Z,0
2017-04-05T01:25:59.623Z,0
2017-04-05T01:26:59.409Z,0
2017-04-05T01:27:59.725Z,0
2017-04-05T01:28:59.673Z,0
2017-04-05T01:29:59.837Z,0
2017-04-05T01:30:59.225Z,0
2017-04-05T01:32:00.627Z,0
2017-04-05T01:33:43.345Z,0
2017-04-05T01:33:59.803Z,0
2017-04-05T01:34:59.820Z,0
2017-04-05T01:35:59.841Z,0
2017-04-05T01:36:59.416Z,0
2017-04-05T01:37:59.767Z,0
2017-04-05T01:42:15.456Z,0
2017-04-05T01:42:45.983Z,0
2017-04-05T01:43:46.593Z,0
2017-04-05T01:44:46.205Z,0
2017-04-05T01:45:46.293Z,0
2017-04-05T01:46:46.516Z,0
2017-04-05T01:47:46.078Z,0
2017-04-05T01:48:46.266Z,0
2017-04-05T01:49:46.633Z,0
2017-04-05T01:50:45.705Z,0
2017-04-05T01:51:46.225Z,0
2017-04-05T01:52:46.185Z,0
2017-04-05T01:53:47.524Z,0
2017-04-05T01:54:46.246Z,0
2017-04-05T01:55:46.655Z,0
2017-04-05T01:56:46.306Z,0
2017-04-05T01:57:45.695Z,0
2017-04-05T01:58:45.944Z,0
2017-04-05T01:59:45.956Z,0
2017-04-05T02:00:46.128Z,0
2017-04-05T02:01:46.343Z,0
2017-04-05T02:02:46.069Z,0
2017-04-05T02:03:46.332Z,0
2017-04-05T02:04:47.393Z,0
2017-04-05T02:05:46.353Z,0
2017-04-05T02:06:46.283Z,0
2017-04-05T02:07:46.102Z,0
2017-04-05T02:08:45.688Z,0
2017-04-05T02:10:15.506Z,0
2017-04-05T02:10:46.531Z,0
2017-04-05T02:11:46.499Z,0
2017-04-05T02:12:46.396Z,0
2017-04-05T02:13:46.541Z,0
2017-04-05T02:14:46.343Z,0
2017-04-05T02:15:47.194Z,0
2017-04-05T02:16:46.377Z,0
2017-04-05T02:17:46.505Z,0
2017-04-05T02:18:46.477Z,0
2017-04-05T02:19:45.791Z,0
2017-04-05T02:20:46.417Z,0
2017-04-05T02:21:46.233Z,0
2017-04-05T02:22:46.491Z,0
2017-04-05T02:23:46.476Z,0
2017-04-05T02:24:46.406Z,0
2017-04-05T02:25:45.771Z,0
2017-04-05T02:26:46.984Z,0
2017-04-05T02:27:45.831Z,0
2017-04-05T02:28:46.208Z,0
2017-04-05T02:29:45.846Z,0
2017-04-05T02:30:46.227Z,0
2017-04-05T02:31:45.997Z,0
2017-04-05T02:32:46.537Z,0
2017-04-05T02:34:01.108Z,0
2017-04-05T02:34:46.594Z,0
2017-04-05T02:35:46.160Z,0
2017-04-05T02:36:46.514Z,0
2017-04-05T02:37:46.816Z,0
2017-04-05T02:38:45.946Z,0
2017-04-05T02:39:45.893Z,0
2017-04-05T02:40:45.856Z,0
2017-04-05T02:41:46.733Z,0
2017-04-05T02:42:46.556Z,0
2017-04-05T02:43:46.184Z,0
2017-04-05T02:44:46.614Z,0
2017-04-05T02:45:46.242Z,0
2017-04-05T02:46:46.652Z,0
2017-04-05T02:47:46.620Z,0
2017-04-05T02:48:46.743Z,0
2017-04-05T02:49:46.277Z,0
2017-04-05T02:50:48.044Z,0
2017-04-05T02:51:46.592Z,0
2017-04-05T02:52:47.291Z,0
2017-04-05T02:53:46.328Z,0
2017-04-05T02:54:46.306Z,0
2017-04-05T02:55:46.536Z,0
2017-04-05T02:56:46.388Z,0
2017-04-05T02:57:46.566Z,0
2017-04-05T02:58:46.309Z,0
2017-04-05T02:59:46.641Z,0
2017-04-05T03:00:46.315Z,0
2017-04-05T03:01:47.774Z,0
2017-04-05T03:02:46.274Z,0
2017-04-05T03:03:46.593Z,0
2017-04-05T03:04:46.659Z,0
2017-04-05T03:05:46.297Z,0
2017-04-05T03:06:46.398Z,0
2017-04-05T03:07:46.656Z,0
2017-04-05T03:08:46.040Z,0
2017-04-05T03:09:46.314Z,0
2017-04-05T03:10:46.633Z,0
2017-04-05T03:11:46.681Z,0
2017-04-05T03:12:47.482Z,0
2017-04-05T03:13:46.385Z,0
2017-04-05T03:14:46.811Z,0
2017-04-05T03:15:46.710Z,0
2017-04-05T03:16:47.503Z,0
2017-04-05T03:17:46.352Z,0
2017-04-05T03:18:46.671Z,0
2017-04-05T03:19:46.728Z,0
2017-04-05T03:20:46.729Z,0
2017-04-05T03:21:46.418Z,0
2017-04-05T03:22:46.690Z,0
2017-04-05T03:23:47.385Z,0
2017-04-05T03:24:46.386Z,0
2017-04-05T03:25:46.703Z,0
2017-04-05T03:26:46.773Z,0
2017-04-05T03:27:46.088Z,0
2017-04-05T03:28:46.732Z,0
2017-04-05T03:29:46.410Z,0
2017-04-05T03:30:46.462Z,0
2017-04-05T03:31:46.110Z,0
2017-04-05T03:32:46.425Z,0
2017-04-05T03:33:46.749Z,0
2017-04-05T03:34:46.957Z,0
2017-04-05T03:35:46.758Z,0
2017-04-05T03:36:46.870Z,0
2017-04-05T03:37:46.759Z,0
2017-04-05T03:38:47.459Z,0
2017-04-05T03:39:46.511Z,0
2017-04-05T03:40:46.835Z,0
2017-04-05T03:41:46.480Z,0
2017-04-05T03:42:46.780Z,0
2017-04-05T03:43:46.807Z,0
2017-04-05T03:44:46.869Z,0
2017-04-05T03:45:47.023Z,0
2017-04-05T03:46:46.498Z,0
2017-04-05T03:47:48.456Z,0
2017-04-05T03:48:46.746Z,0
2017-04-05T03:49:47.220Z,0
2017-04-05T03:50:46.520Z,0
2017-04-05T03:51:46.526Z,0
2017-04-05T03:52:46.569Z,0
2017-04-05T03:53:46.910Z,0
2017-04-05T03:54:46.589Z,0
2017-04-05T03:55:46.642Z,0
2017-04-05T03:56:46.856Z,0
2017-04-05T03:57:46.864Z,0
2017-04-05T03:58:48.289Z,0
2017-04-05T03:59:46.934Z,0
2017-04-05T04:00:47.137Z,0
2017-04-05T04:01:46.963Z,0
2017-04-05T04:02:46.730Z,0
2017-04-05T04:04:01.512Z,0
2017-04-05T04:04:46.387Z,0
2017-04-05T04:05:46.646Z,0
2017-04-05T04:06:46.658Z,0
2017-04-05T04:07:46.958Z,0
2017-04-05T04:08:46.980Z,0
2017-04-05T04:09:48.095Z,0
2017-04-05T04:10:46.983Z,0
2017-04-05T04:11:46.978Z,0
2017-04-05T04:12:47.042Z,0
2017-04-05T04:13:46.949Z,0
2017-04-05T04:14:46.634Z,0
2017-04-05T04:15:47.084Z,0
2017-04-05T04:16:46.654Z,0
2017-04-05T04:17:47.028Z,0
2017-04-05T04:18:46.661Z,0
2017-04-05T04:19:46.974Z,0
2017-04-05T04:20:48.030Z,0
2017-04-05T04:21:46.991Z,0
2017-04-05T04:22:46.922Z,0
2017-04-05T04:23:47.158Z,0
2017-04-05T04:24:48.161Z,0
2017-04-05T04:25:47.058Z,0
2017-04-05T04:26:46.692Z,0
2017-04-05T04:27:46.699Z,0
2017-04-05T04:28:47.021Z,0
2017-04-05T04:29:46.447Z,0
2017-04-05T04:30:46.721Z,0
2017-04-05T04:31:47.476Z,0
2017-04-05T04:32:47.124Z,0
2017-04-05T04:33:47.048Z,0
2017-04-05T04:34:47.052Z,0
2017-04-05T04:35:48.014Z,0
2017-04-05T04:36:46.797Z,0
2017-04-05T04:37:47.117Z,0
2017-04-05T04:38:46.819Z,0
2017-04-05T04:39:46.768Z,0
2017-04-05T04:40:46.823Z,0
2017-04-05T04:41:47.343Z,0
2017-04-05T04:42:47.640Z,0
2017-04-05T04:43:46.792Z,0
2017-04-05T04:44:47.107Z,0
2017-04-05T04:45:47.121Z,0
2017-04-05T04:46:47.961Z,0
2017-04-05T04:47:47.179Z,0
2017-04-05T04:48:46.805Z,0
2017-04-05T04:49:47.175Z,0
2017-04-05T04:50:47.290Z,0
2017-04-05T04:51:47.186Z,0
2017-04-05T04:52:47.239Z,0
2017-04-05T04:53:47.137Z,0
2017-04-05T04:54:47.209Z,0
2017-04-05T04:55:49.041Z,0
2017-04-05T04:56:47.164Z,0
2017-04-05T04:57:47.761Z,0
2017-04-05T04:58:47.210Z,0
2017-04-05T04:59:47.808Z,0
2017-04-05T05:00:46.615Z,0
2017-04-05T05:01:46.947Z,0
2017-04-05T05:02:46.876Z,0
2017-04-05T05:03:47.198Z,0
2017-04-05T05:04:47.242Z,0
2017-04-05T05:05:47.197Z,0
2017-04-05T05:06:48.896Z,5
2017-04-05T05:07:47.007Z,5
2017-04-05T05:08:47.720Z,5
2017-04-05T05:09:48.532Z,5
2017-04-05T05:10:47.122Z,5
2017-04-05T05:11:47.233Z,5
2017-04-05T05:12:47.248Z,5
2017-04-05T05:13:46.717Z,5
2017-04-05T05:14:46.951Z,5
2017-04-05T05:15:47.313Z,10
2017-04-05T05:16:47.275Z,10
2017-04-05T05:17:46.969Z,10
2017-04-05T05:18:47.279Z,10
2017-04-05T05:19:48.060Z,10
2017-04-05T05:20:47.019Z,10
2017-04-05T05:21:47.312Z,10
2017-04-05T05:22:47.020Z,10
2017-04-05T05:23:47.335Z,15
2017-04-05T05:24:46.994Z,15
2017-04-05T05:25:47.324Z,15
2017-04-05T05:26:47.147Z,15
2017-04-05T05:27:47.335Z,15
2017-04-05T05:28:47.100Z,20
2017-04-05T05:29:47.441Z,20
2017-04-05T05:30:48.066Z,20
2017-04-05T05:31:47.342Z,25
2017-04-05T05:32:47.345Z,25
2017-04-05T05:33:49.501Z,25
2017-04-05T05:34:47.402Z,25
2017-04-05T05:35:47.102Z,25
2017-04-05T05:36:47.361Z,25
2017-04-05T05:37:47.419Z,25
2017-04-05T05:38:46.750Z,30
2017-04-05T05:39:48.090Z,30
2017-04-05T05:40:47.383Z,30
2017-04-05T05:41:47.885Z,30
2017-04-05T05:42:47.092Z,30
2017-04-05T05:43:47.451Z,30
2017-04-05T05:44:47.083Z,30
2017-04-05T05:45:47.105Z,30
2017-04-05T05:46:46.776Z,25
2017-04-05T05:47:47.417Z,25
2017-04-05T05:48:47.104Z,30
2017-04-05T05:49:47.181Z,30
2017-04-05T05:50:47.493Z,30
2017-04-05T05:51:46.811Z,30
2017-04-05T05:52:47.745Z,35
2017-04-05T05:53:47.649Z,30
2017-04-05T05:54:49.013Z,30
2017-04-05T05:55:47.877Z,30
2017-04-05T05:56:47.480Z,35
2017-04-05T05:57:47.547Z,35
2017-04-05T05:58:47.202Z,35
2017-04-05T05:59:47.487Z,35
2017-04-05T06:00:47.627Z,40
2017-04-05T06:01:46.873Z,45
2017-04-05T06:02:47.552Z,50
2017-04-05T06:03:47.585Z,60
2017-04-05T06:04:47.207Z,65
2017-04-05T06:05:47.660Z,65
2017-04-05T06:06:46.964Z,70
2017-04-05T06:07:48.092Z,75
2017-04-05T06:08:47.321Z,70
2017-04-05T06:09:47.522Z,75
2017-04-05T06:10:46.923Z,85
2017-04-05T06:11:47.637Z,90
2017-04-05T06:12:47.246Z,90
2017-04-05T06:13:47.657Z,90
2017-04-05T06:14:47.785Z,85
2017-04-05T06:15:47.616Z,85
2017-04-05T06:16:47.621Z,85
2017-04-05T06:17:47.417Z,95
2017-04-05T06:18:48.274Z,90
2017-04-05T06:19:47.384Z,90
2017-04-05T06:20:47.338Z,85
2017-04-05T06:21:47.289Z,80
2017-04-05T06:22:47.692Z,80
2017-04-05T06:23:47.681Z,70
2017-04-05T06:24:47.082Z,65
2017-04-05T06:25:47.854Z,65
2017-04-05T06:26:47.377Z,65
2017-04-05T06:27:49.138Z,65
2017-04-05T06:28:47.413Z,80
2017-04-05T06:29:48.108Z,85
2017-04-05T06:30:47.708Z,75
2017-04-05T06:31:47.375Z,65
2017-04-05T06:32:47.723Z,65
2017-04-05T06:34:01.959Z,40
2017-04-05T06:34:47.457Z,40
2017-04-05T06:35:47.670Z,35
2017-04-05T06:36:47.679Z,35
2017-04-05T06:37:47.746Z,35
2017-04-05T06:38:49.305Z,30
2017-04-05T06:39:47.747Z,30
2017-04-05T06:40:48.055Z,30
2017-04-05T06:41:47.758Z,30
2017-04-05T06:42:47.493Z,30
2017-04-05T06:43:47.763Z,30
2017-04-05T06:44:47.771Z,30
2017-04-05T06:45:47.891Z,30
2017-04-05T06:46:47.773Z,30
2017-04-05T06:47:47.794Z,30
2017-04-05T06:48:47.797Z,30
2017-04-05T06:49:49.000Z,35
2017-04-05T06:50:47.808Z,35
2017-04-05T06:51:47.869Z,40
2017-04-05T06:52:47.859Z,45
2017-04-05T06:53:47.890Z,50
2017-04-05T06:54:47.516Z,55
2017-04-05T06:55:47.251Z,55
2017-04-05T06:56:47.523Z,60
2017-04-05T06:57:47.784Z,65
2017-04-05T06:58:47.844Z,75
2017-04-05T06:59:47.854Z,90
2017-04-05T07:00:48.708Z,100
2017-04-05T07:01:47.282Z,105
2017-04-05T07:02:47.872Z,105
2017-04-05T07:03:47.817Z,100
2017-04-05T07:04:48.666Z,95
2017-04-05T07:05:47.567Z,90
2017-04-05T07:06:47.942Z,90
2017-04-05T07:07:47.851Z,85
2017-04-05T07:08:47.582Z,90
2017-04-05T07:09:47.854Z,95
2017-04-05T07:10:47.956Z,100
2017-04-05T07:11:48.521Z,105
2017-04-05T07:12:48.558Z,100
2017-04-05T07:13:47.623Z,95
2017-04-05T07:14:47.716Z,95
2017-04-05T07:15:48.945Z,100
2017-04-05T07:16:47.426Z,100
2017-04-05T07:17:48.154Z,100
2017-04-05T07:18:48.755Z,90
2017-04-05T07:19:48.584Z,75
2017-04-05T07:20:48.480Z,60
2017-04-05T07:21:48.020Z,55
2017-04-05T07:22:48.009Z,60
2017-04-05T07:23:47.608Z,65
2017-04-05T07:24:47.984Z,70
2017-04-05T07:25:48.002Z,70
2017-04-05T07:26:48.694Z,75
2017-04-05T07:27:47.693Z,80
2017-04-05T07:28:48.002Z,80
2017-04-05T07:29:48.135Z,85
2017-04-05T07:30:48.027Z,90
2017-04-05T07:31:48.020Z,90
2017-04-05T07:32:47.665Z,95
2017-04-05T07:34:02.341Z,100
2017-04-05T07:34:47.826Z,95
2017-04-05T07:35:48.011Z,85
2017-04-05T07:36:48.053Z,80
2017-04-05T07:37:48.585Z,75
2017-04-05T07:38:48.006Z,70
2017-04-05T07:39:48.016Z,60
2017-04-05T07:40:47.511Z,50
2017-04-05T07:41:48.035Z,35
2017-04-05T07:42:47.826Z,30
2017-04-05T07:43:48.133Z,30
2017-04-05T07:44:47.837Z,35
2017-04-05T07:45:48.041Z,40
2017-04-05T07:46:47.579Z,45
2017-04-05T07:47:48.135Z,50
2017-04-05T07:48:48.712Z,55
2017-04-05T07:49:48.129Z,65
2017-04-05T07:50:48.013Z,75
2017-04-05T07:51:48.131Z,80
2017-04-05T07:52:48.194Z,85
2017-04-05T07:53:47.462Z,85
2017-04-05T07:54:48.112Z,85
2017-04-05T07:55:48.099Z,90
2017-04-05T07:56:47.848Z,90
2017-04-05T07:57:48.172Z,90
2017-04-05T07:58:48.218Z,100
2017-04-05T07:59:48.766Z,100
2017-04-05T08:00:48.179Z,105
2017-04-05T08:01:48.294Z,115
2017-04-05T08:02:47.620Z,125
2017-04-05T08:03:48.144Z,125
2017-04-05T08:04:48.285Z,120
2017-04-05T08:05:47.279Z,115
2017-04-05T08:06:48.251Z,105
2017-04-05T08:07:47.913Z,105
2017-04-05T08:08:49.346Z,105
2017-04-05T08:09:47.624Z,110
2017-04-05T08:10:48.392Z,110
2017-04-05T08:11:48.245Z,110
2017-04-05T08:12:49.417Z,115
2017-04-05T08:13:47.730Z,120
2017-04-05T08:14:47.694Z,115
2017-04-05T08:15:47.901Z,115
2017-04-05T08:16:48.227Z,115
2017-04-05T08:17:48.227Z,110
2017-04-05T08:18:47.659Z,110
2017-04-05T08:19:47.771Z,115
2017-04-05T08:20:47.686Z,115
2017-04-05T08:21:48.538Z,115
2017-04-05T08:22:48.264Z,110
2017-04-05T08:23:49.900Z,110
2017-04-05T08:24:48.323Z,105
2017-04-05T08:25:47.972Z,105
2017-04-05T08:26:47.702Z,100
2017-04-05T08:27:48.030Z,100
2017-04-05T08:28:48.286Z,100
2017-04-05T08:29:48.348Z,100
2017-04-05T08:30:47.992Z,120
2017-04-05T08:31:47.495Z,130
2017-04-05T08:32:48.783Z,135
2017-04-05T08:33:47.793Z,95
2017-04-05T08:34:47.754Z,80
2017-04-05T08:35:48.075Z,60
2017-04-05T08:36:48.671Z,55
2017-04-05T08:37:48.444Z,55
2017-04-05T08:38:48.082Z,50
2017-04-05T08:39:48.158Z,55
2017-04-05T08:40:48.102Z,55
2017-04-05T08:41:48.473Z,55
2017-04-05T08:42:48.112Z,55
2017-04-05T08:43:47.855Z,55
2017-04-05T08:44:48.068Z,55
2017-04-05T08:45:50.012Z,50
2017-04-05T08:46:48.143Z,50
2017-04-05T08:47:48.534Z,55
2017-04-05T08:48:48.522Z,50
2017-04-05T08:49:48.436Z,45
2017-04-05T08:50:47.801Z,40
2017-04-05T08:51:47.806Z,35
2017-04-05T08:52:48.424Z,30
2017-04-05T08:53:48.524Z,25
2017-04-05T08:54:48.796Z,30
2017-04-05T08:55:48.515Z,35
2017-04-05T08:56:50.020Z,40
2017-04-05T08:57:47.524Z,40
2017-04-05T08:58:48.863Z,45
2017-04-05T08:59:48.172Z,40
2017-04-05T09:00:48.684Z,40
2017-04-05T09:01:48.950Z,40
2017-04-05T09:02:48.486Z,40
2017-04-05T09:03:48.645Z,40
2017-04-05T09:04:48.293Z,40
2017-04-05T09:05:48.496Z,40
2017-04-05T09:06:48.561Z,35
2017-04-05T09:07:50.326Z,30
2017-04-05T09:08:47.995Z,30
2017-04-05T09:09:49.069Z,35
2017-04-05T09:10:48.272Z,40
2017-04-05T09:11:48.035Z,55
2017-04-05T09:12:48.321Z,60
2017-04-05T09:13:48.235Z,60
2017-04-05T09:14:47.920Z,50
2017-04-05T09:15:48.298Z,45
2017-04-05T09:16:48.382Z,45
2017-04-05T09:17:48.593Z,50
2017-04-05T09:18:50.270Z,45
2017-04-05T09:19:48.105Z,40
2017-04-05T09:20:49.035Z,40
2017-04-05T09:21:48.330Z,45
2017-04-05T09:22:48.712Z,45
2017-04-05T09:23:47.724Z,50
2017-04-05T09:24:48.404Z,50
2017-04-05T09:25:48.402Z,55
2017-04-05T09:26:48.098Z,60
2017-04-05T09:27:48.362Z,60
2017-04-05T09:28:48.324Z,65
2017-04-05T09:29:50.217Z,70
2017-04-05T09:30:48.698Z,80
2017-04-05T09:31:49.146Z,90
2017-04-05T09:32:48.703Z,95
2017-04-05T09:34:03.209Z,100
2017-04-05T09:34:48.086Z,100
2017-04-05T09:35:48.405Z,100
2017-04-05T09:36:48.149Z,100
2017-04-05T09:37:49.006Z,105
2017-04-05T09:38:48.374Z,100
2017-04-05T09:39:48.428Z,100
2017-04-05T09:40:48.735Z,105
2017-04-05T09:41:48.696Z,105
2017-04-05T09:42:49.266Z,105
2017-04-05T09:43:48.774Z,105
2017-04-05T09:44:48.776Z,110
2017-04-05T09:45:48.524Z,120
2017-04-05T09:46:48.832Z,110
2017-04-05T09:47:48.826Z,110
2017-04-05T09:48:48.735Z,105
2017-04-05T09:49:48.844Z,110
2017-04-05T09:50:48.495Z,100
2017-04-05T09:51:49.888Z,100
2017-04-05T09:52:48.250Z,110
2017-04-05T09:53:49.015Z,105
2017-04-05T09:54:48.222Z,105
2017-04-05T09:55:50.194Z,105
2017-04-05T09:56:48.528Z,105
2017-04-05T09:57:48.487Z,110
2017-04-05T09:58:48.899Z,100
2017-04-05T09:59:48.922Z,100
2017-04-05T10:00:48.871Z,105
2017-04-05T10:01:48.883Z,105
2017-04-05T10:02:48.573Z,105
2017-04-05T10:04:03.236Z,85
2017-04-05T10:04:49.021Z,85
2017-04-05T10:05:48.578Z,90
2017-04-05T10:06:50.441Z,100
2017-04-05T10:07:48.608Z,105
2017-04-05T10:08:48.592Z,110
2017-04-05T10:09:48.599Z,100
2017-04-05T10:10:48.604Z,100
2017-04-05T10:11:49.933Z,105
2017-04-05T10:12:48.345Z,100
2017-04-05T10:13:48.946Z,100
2017-04-05T10:14:48.309Z,100
2017-04-05T10:15:48.686Z,95
2017-04-05T10:16:48.648Z,100
2017-04-05T10:17:48.289Z,100
2017-04-05T10:18:48.964Z,100
2017-04-05T10:19:49.167Z,95
2017-04-05T10:20:48.921Z,90
2017-04-05T10:21:49.145Z,90
2017-04-05T10:22:48.641Z,90
2017-04-05T10:23:48.931Z,85
2017-04-05T10:24:48.634Z,95
2017-04-05T10:25:47.813Z,100
2017-04-05T10:26:48.973Z,100
2017-04-05T10:27:48.718Z,95
2017-04-05T10:28:50.381Z,90
2017-04-05T10:29:48.448Z,90
2017-04-05T10:30:49.288Z,85
2017-04-05T10:31:48.984Z,90
2017-04-05T10:32:48.842Z,85
2017-04-05T10:33:48.744Z,85
2017-04-05T10:34:49.120Z,90
2017-04-05T10:35:48.908Z,90
2017-04-05T10:36:48.459Z,95
2017-04-05T10:37:51.078Z,95
2017-04-05T10:38:48.862Z,90
2017-04-05T10:39:50.448Z,80
2017-04-05T10:40:48.480Z,80
2017-04-05T10:41:49.263Z,90
2017-04-05T10:42:48.801Z,95
2017-04-05T10:43:49.111Z,95
2017-04-05T10:44:49.366Z,90
2017-04-05T10:45:48.495Z,85
2017-04-05T10:46:48.470Z,85
2017-04-05T10:47:49.146Z,85
2017-04-05T10:48:48.877Z,80
2017-04-05T10:49:49.139Z,75
2017-04-05T10:50:50.196Z,75
2017-04-05T10:51:49.155Z,80
2017-04-05T10:52:49.167Z,75
2017-04-05T10:53:49.268Z,75
2017-04-05T10:54:49.130Z,70
2017-04-05T10:55:48.836Z,80
2017-04-05T10:56:49.209Z,85
2017-04-05T10:57:48.878Z,80
2017-04-05T10:58:48.887Z,80
2017-04-05T10:59:48.649Z,75
2017-04-05T11:00:48.898Z,70
2017-04-05T11:01:50.277Z,65
2017-04-05T11:02:48.981Z,65
2017-04-05T11:03:49.121Z,65
2017-04-05T11:04:48.927Z,60
2017-04-05T11:05:50.344Z,55
2017-04-05T11:06:49.261Z,45
2017-04-05T11:07:48.934Z,40
2017-04-05T11:08:49.249Z,45
2017-04-05T11:09:50.782Z,45
2017-04-05T11:10:49.353Z,45
2017-04-05T11:11:49.331Z,45
2017-04-05T11:12:49.466Z,45
2017-04-05T11:13:49.351Z,45
2017-04-05T11:14:49.036Z,45
2017-04-05T11:15:49.304Z,45
2017-04-05T11:16:50.026Z,45
2017-04-05T11:17:48.953Z,45
2017-04-05T11:18:49.522Z,45
2017-04-05T11:19:49.388Z,45
2017-04-05T11:20:48.974Z,45
2017-04-05T11:21:48.985Z,45
2017-04-05T11:22:50.354Z,40
2017-04-05T11:23:49.601Z,40
2017-04-05T11:24:49.009Z,35
2017-04-05T11:25:50.932Z,35
2017-04-05T11:26:49.215Z,40
2017-04-05T11:27:49.766Z,45
2017-04-05T11:28:49.329Z,45
2017-04-05T11:29:49.341Z,50
2017-04-05T11:30:50.684Z,55
2017-04-05T11:31:49.401Z,60
2017-04-05T11:32:49.353Z,65
2017-04-05T11:34:03.399Z,65
2017-04-05T11:34:49.101Z,60
2017-04-05T11:35:49.052Z,55
2017-04-05T11:36:50.930Z,50
2017-04-05T11:37:49.435Z,45
2017-04-05T11:38:49.680Z,45
2017-04-05T11:39:48.861Z,45
2017-04-05T11:40:49.497Z,45
2017-04-05T11:41:48.784Z,50
2017-04-05T11:42:49.148Z,55
2017-04-05T11:43:49.202Z,55
2017-04-05T11:44:49.786Z,60
2017-04-05T11:45:49.418Z,70
2017-04-05T11:46:49.630Z,65
2017-04-05T11:47:50.710Z,70
2017-04-05T11:48:49.191Z,70
2017-04-05T11:49:49.625Z,70
2017-04-05T11:50:49.192Z,70
2017-04-05T11:51:49.200Z,65
2017-04-05T11:52:49.208Z,80
2017-04-05T11:53:49.204Z,70
2017-04-05T11:54:49.228Z,70
2017-04-05T11:55:49.602Z,65
2017-04-05T11:56:49.223Z,70
2017-04-05T11:57:49.555Z,65
2017-04-05T11:58:50.748Z,65
2017-04-05T11:59:49.608Z,65
2017-04-05T12:00:49.628Z,75
2017-04-05T12:01:49.525Z,70
2017-04-05T12:02:50.843Z,60
2017-04-05T12:03:50.916Z,60
2017-04-05T12:04:49.275Z,55
2017-04-05T12:05:49.696Z,55
2017-04-05T12:06:49.671Z,55
2017-04-05T12:07:49.540Z,65
2017-04-05T12:08:49.590Z,65
2017-04-05T12:09:50.247Z,65
2017-04-05T12:10:50.393Z,65
2017-04-05T12:11:51.839Z,60
2017-04-05T12:12:49.646Z,60
2017-04-05T12:13:51.067Z,60
2017-04-05T12:14:48.722Z,60
2017-04-05T12:15:49.655Z,55
2017-04-05T12:16:49.139Z,55
2017-04-05T12:17:49.366Z,60
2017-04-05T12:18:48.806Z,55
2017-04-05T12:19:49.317Z,55
2017-04-05T12:20:50.841Z,55
2017-04-05T12:21:49.392Z,55
2017-04-05T12:22:49.621Z,55
2017-04-05T12:23:49.433Z,55
2017-04-05T12:24:51.001Z,55
2017-04-05T12:25:49.769Z,55
2017-04-05T12:26:49.417Z,55
2017-04-05T12:27:49.472Z,65
2017-04-05T12:28:49.736Z,65
2017-04-05T12:29:49.817Z,65
2017-04-05T12:30:49.425Z,60
2017-04-05T12:31:49.136Z,55
2017-04-05T12:32:49.763Z,65
2017-04-05T12:33:49.458Z,60
2017-04-05T12:34:49.772Z,65
2017-04-05T12:35:50.819Z,65
2017-04-05T12:36:49.838Z,60
2017-04-05T12:37:49.224Z,60
2017-04-05T12:38:49.172Z,60
2017-04-05T12:39:49.767Z,60
2017-04-05T12:40:49.296Z,60
2017-04-05T12:41:49.815Z,55
2017-04-05T12:44:49.552Z,40
2017-04-05T12:45:49.852Z,35
2017-04-05T12:46:50.627Z,35
2017-04-05T12:47:49.858Z,40
2017-04-05T12:48:49.589Z,40
2017-04-05T12:49:49.607Z,45
2017-04-05T12:50:49.570Z,40
2017-04-05T12:51:49.824Z,45
2017-04-05T12:52:49.620Z,50
2017-04-05T12:53:50.020Z,55
2017-04-05T12:54:49.632Z,55
2017-04-05T12:55:49.964Z,60
2017-04-05T12:56:49.936Z,60
2017-04-05T12:57:50.325Z,65
2017-04-05T12:58:49.956Z,65
2017-04-05T12:59:49.657Z,70
2017-04-05T13:00:49.725Z,65
2017-04-05T13:01:49.667Z,70
2017-04-05T13:02:49.680Z,70
2017-04-05T13:03:49.643Z,65
2017-04-05T13:04:50.015Z,65
2017-04-05T13:05:49.619Z,55
2017-04-05T13:06:51.099Z,50
2017-04-05T13:07:49.913Z,45
2017-04-05T13:08:50.165Z,45
2017-04-05T13:09:49.933Z,45
2017-04-05T13:10:51.267Z,50
2017-04-05T13:11:50.053Z,55
2017-04-05T13:12:49.961Z,55
2017-04-05T13:13:49.706Z,60
2017-04-05T13:14:49.596Z,55
2017-04-05T13:15:49.707Z,55
2017-04-05T13:16:49.994Z,55
2017-04-05T13:17:50.024Z,55
2017-04-05T13:18:50.095Z,55
2017-04-05T13:19:50.149Z,60
2017-04-05T13:20:50.056Z,55
2017-04-05T13:21:51.515Z,55
2017-04-05T13:22:50.064Z,55
2017-04-05T13:23:50.063Z,55
2017-04-05T13:24:50.126Z,50
2017-04-05T13:25:50.087Z,50
2017-04-05T13:26:50.056Z,45
2017-04-05T13:27:51.178Z,45
2017-04-05T13:28:50.157Z,45
2017-04-05T13:29:50.150Z,50
2017-04-05T13:30:49.647Z,50
2017-04-05T13:31:49.810Z,55
2017-04-05T13:32:50.954Z,55
2017-04-05T13:34:04.341Z,55
2017-04-05T13:34:50.134Z,55
2017-04-05T13:35:50.181Z,55
2017-04-05T13:36:50.159Z,50
2017-04-05T13:37:50.162Z,45
2017-04-05T13:38:50.103Z,45
2017-04-05T13:39:49.591Z,40
2017-04-05T13:40:49.917Z,35
2017-04-05T13:41:50.211Z,30
2017-04-05T13:42:49.304Z,30
2017-04-05T13:43:51.395Z,30
2017-04-05T13:44:50.150Z,30
2017-04-05T13:45:50.092Z,30
2017-04-05T13:46:50.242Z,35
2017-04-05T13:47:49.967Z,40
2017-04-05T13:48:50.330Z,45
2017-04-05T13:49:50.179Z,45
2017-04-05T13:50:50.237Z,50
2017-04-05T13:51:50.005Z,50
2017-04-05T13:52:50.318Z,55
2017-04-05T13:53:49.937Z,55
2017-04-05T13:54:51.301Z,60
2017-04-05T13:55:49.655Z,60
2017-04-05T13:56:50.268Z,60
2017-04-05T13:57:50.377Z,55
2017-04-05T13:58:50.398Z,55
2017-04-05T13:59:50.397Z,55
2017-04-05T14:00:50.237Z,55
2017-04-05T14:01:50.117Z,55
2017-04-05T14:02:50.263Z,50
2017-04-05T14:03:50.413Z,45
2017-04-05T14:04:49.485Z,40
2017-04-05T14:05:51.508Z,40
2017-04-05T14:06:50.174Z,40
2017-04-05T14:07:50.296Z,40
2017-04-05T14:08:50.298Z,35
2017-04-05T14:09:49.868Z,35
2017-04-05T14:10:50.047Z,30
2017-04-05T14:11:49.424Z,35
2017-04-05T14:12:50.384Z,35
2017-04-05T14:13:50.375Z,35
2017-04-05T14:14:50.439Z,35
2017-04-05T14:15:49.542Z,35
2017-04-05T14:16:51.260Z,40
2017-04-05T14:17:50.426Z,40
2017-04-05T14:18:50.405Z,35
2017-04-05T14:19:50.041Z,35
2017-04-05T14:20:50.424Z,35
2017-04-05T14:21:49.799Z,35
2017-04-05T14:22:50.170Z,35
2017-04-05T14:23:50.538Z,35
2017-04-05T14:24:50.502Z,35
2017-04-05T14:25:49.522Z,40
2017-04-05T14:26:50.443Z,40
2017-04-05T14:27:51.257Z,40